Time;durP1;ratioP1;P1;durP2;ratioP2;P2;SDS_P1;SDS_P2;PMS_P1;PMS_P2;Temp;Humidity;BMP_temperature;BMP_pressure;BME280_temperature;BME280_humidity;BME280_pressure;Samples;Min_cycle;Max_cycle;Signal;HPM_P1;HPM_P2
2022/06/22 00:00:24;;;;;;;6.30;5.53;;;;;;;;;;5016722;28;20475;-82
2022/06/22 00:02:51;;;;;;;7.90;6.27;;;;;;;;;;5016190;28;20454;-82
2022/06/22 00:05:19;;;;;;;7.80;5.40;;;;;;;;;;5016948;28;20502;-82
2022/06/22 00:07:53;;;;;;;7.87;4.97;;;;;;;;;;5016311;28;20399;-82
2022/06/22 00:10:40;;;;;;;6.60;5.10;;;;;;;;;;5016443;28;20417;-82
2022/06/22 00:13:23;;;;;;;8.60;5.17;;;;;;;;;;5014331;28;20396;-82
2022/06/22 00:15:51;;;;;;;6.80;4.90;;;;;;;;;;5016321;28;20407;-82
2022/06/22 00:18:25;;;;;;;10.40;4.97;;;;;;;;;;5016225;28;20546;-82
2022/06/22 00:20:53;;;;;;;6.73;5.40;;;;;;;;;;5015694;28;20892;-82
2022/06/22 00:23:24;;;;;;;9.90;6.60;;;;;;;;;;5015896;28;20817;-82
2022/06/22 00:25:51;;;;;;;6.60;5.60;;;;;;;;;;5016279;28;20392;-82
2022/06/22 00:28:25;;;;;;;7.13;5.80;;;;;;;;;;5015718;28;20407;-82
2022/06/22 00:30:57;;;;;;;5.73;5.23;;;;;;;;;;4998129;28;20837;-80
2022/06/22 00:33:24;;;;;;;7.57;5.20;;;;;;;;;;5015800;28;20402;-80
2022/06/22 00:35:53;;;;;;;7.33;5.63;;;;;;;;;;5015714;28;20453;-80
2022/06/22 00:38:21;;;;;;;8.40;5.40;;;;;;;;;;5015875;28;20528;-80
2022/06/22 00:40:49;;;;;;;9.87;6.20;;;;;;;;;;5015731;28;20454;-80
2022/06/22 00:43:16;;;;;;;10.70;6.40;;;;;;;;;;5015715;28;20411;-80
2022/06/22 00:45:43;;;;;;;10.63;5.60;;;;;;;;;;4997683;28;20424;-80
2022/06/22 00:48:11;;;;;;;5.90;5.30;;;;;;;;;;5020492;28;20414;-80
2022/06/22 00:50:44;;;;;;;11.73;6.60;;;;;;;;;;5016410;28;20400;-81
2022/06/22 00:53:17;;;;;;;10.43;6.90;;;;;;;;;;4999691;28;20435;-81
2022/06/22 00:55:48;;;;;;;8.83;6.20;;;;;;;;;;5016798;28;20417;-81
2022/06/22 00:58:21;;;;;;;9.47;6.37;;;;;;;;;;5015028;28;20438;-81
2022/06/22 01:01:13;;;;;;;11.40;6.20;;;;;;;;;;5015148;28;20514;-81
2022/06/22 01:03:42;;;;;;;9.93;5.63;;;;;;;;;;5012180;28;20510;-81
2022/06/22 01:06:14;;;;;;;9.07;6.43;;;;;;;;;;5015122;28;20395;-81
2022/06/22 01:08:45;;;;;;;9.90;6.90;;;;;;;;;;5014687;28;20380;-81
2022/06/22 01:12:16;;;;;;;8.90;6.87;;;;;;;;;;5014823;28;20537;-81
2022/06/22 01:13:58;;;;;;;9.80;7.67;;;;;;;;;;5014670;28;20911;-81
2022/06/22 01:16:27;;;;;;;9.73;6.60;;;;;;;;;;5015044;28;20411;-81
2022/06/22 01:18:59;;;;;;;7.90;7.20;;;;;;;;;;5014890;28;20408;-81
2022/06/22 01:21:44;;;;;;;8.50;6.93;;;;;;;;;;5015681;28;20442;-81
2022/06/22 01:24:22;;;;;;;10.60;7.93;;;;;;;;;;5015181;28;20402;-82
2022/06/22 01:27:07;;;;;;;10.93;7.03;;;;;;;;;;5014832;28;20403;-81
2022/06/22 01:29:34;;;;;;;8.13;7.33;;;;;;;;;;5020101;28;20421;-80
2022/06/22 01:32:02;;;;;;;7.73;6.80;;;;;;;;;;5019774;28;20856;-81
2022/06/22 01:34:35;;;;;;;7.80;7.10;;;;;;;;;;5015996;28;20845;-82
2022/06/22 01:37:05;;;;;;;8.77;7.67;;;;;;;;;;5016362;28;20537;-82
2022/06/22 01:39:32;;;;;;;9.30;7.70;;;;;;;;;;5002719;28;21014;-81
2022/06/22 01:42:15;;;;;;;8.27;7.47;;;;;;;;;;4996663;28;20420;-82
2022/06/22 01:44:46;;;;;;;8.47;6.80;;;;;;;;;;4996447;28;20411;-81
2022/06/22 01:47:24;;;;;;;8.30;7.50;;;;;;;;;;4996581;28;20404;-81
2022/06/22 01:50:03;;;;;;;8.03;7.23;;;;;;;;;;4996445;28;20412;-81
2022/06/22 01:52:38;;;;;;;8.53;7.63;;;;;;;;;;4996288;28;20957;-81
2022/06/22 01:55:23;;;;;;;10.40;8.60;;;;;;;;;;4995880;28;20459;-81
2022/06/22 01:57:57;;;;;;;9.47;7.70;;;;;;;;;;4996154;28;20875;-81
2022/06/22 02:00:24;;;;;;;10.90;8.93;;;;;;;;;;4995969;28;20447;-81
2022/06/22 02:02:54;;;;;;;11.33;7.30;;;;;;;;;;4996919;28;20440;-81
2022/06/22 02:05:20;;;;;;;7.73;6.60;;;;;;;;;;4995954;28;20415;-81
2022/06/22 02:07:57;;;;;;;9.27;6.60;;;;;;;;;;4994852;28;20448;-81
2022/06/22 02:10:44;;;;;;;7.87;7.20;;;;;;;;;;4995263;28;20790;-80
2022/06/22 02:13:25;;;;;;;7.40;6.70;;;;;;;;;;4995087;28;20837;-80
2022/06/22 02:16:10;;;;;;;11.27;6.50;;;;;;;;;;4993886;28;20503;-81
2022/06/22 02:18:54;;;;;;;7.10;6.10;;;;;;;;;;4995903;28;20412;-82
2022/06/22 02:21:25;;;;;;;8.20;6.57;;;;;;;;;;4994112;28;20424;-81
2022/06/22 02:24:05;;;;;;;9.77;6.47;;;;;;;;;;4994681;28;20488;-81
2022/06/22 02:26:39;;;;;;;6.47;5.87;;;;;;;;;;4995080;28;20817;-81
2022/06/22 02:29:06;;;;;;;9.17;7.03;;;;;;;;;;5003324;28;20480;-81
2022/06/22 02:31:33;;;;;;;9.60;6.07;;;;;;;;;;5002876;28;20424;-81
2022/06/22 02:33:59;;;;;;;8.77;5.83;;;;;;;;;;4998633;28;20419;-81
2022/06/22 02:36:27;;;;;;;9.23;5.13;;;;;;;;;;4996733;28;20976;-81
2022/06/22 02:38:55;;;;;;;11.63;5.90;;;;;;;;;;4995993;28;20412;-81
2022/06/22 02:44:30;;;;;;;9.77;5.60;;;;;;;;;;4996710;28;20399;-82
2022/06/22 02:46:57;;;;;;;8.83;5.50;;;;;;;;;;4980313;28;20781;-81
2022/06/22 02:49:30;;;;;;;8.60;5.97;;;;;;;;;;4999282;28;20431;-81
2022/06/22 02:51:56;;;;;;;7.97;4.97;;;;;;;;;;5000325;28;20456;-81
2022/06/22 02:54:33;;;;;;;7.40;4.87;;;;;;;;;;4999559;28;20411;-81
2022/06/22 02:57:04;;;;;;;7.30;5.67;;;;;;;;;;5002696;28;20613;-81
2022/06/22 02:59:30;;;;;;;5.20;4.70;;;;;;;;;;5000348;28;20399;-81
2022/06/22 03:01:56;;;;;;;6.27;5.50;;;;;;;;;;5004566;28;20519;-80
2022/06/22 03:04:23;;;;;;;11.87;5.60;;;;;;;;;;5015342;28;20447;-81
2022/06/22 03:06:50;;;;;;;8.07;5.00;;;;;;;;;;5012045;28;20475;-81
2022/06/22 03:09:17;;;;;;;11.80;5.60;;;;;;;;;;5000505;28;20404;-82
2022/06/22 03:11:45;;;;;;;7.20;4.93;;;;;;;;;;4999498;28;20459;-81
2022/06/22 03:14:23;;;;;;;9.40;6.30;;;;;;;;;;5000113;28;20443;-81
2022/06/22 03:16:51;;;;;;;5.97;5.30;;;;;;;;;;4980722;28;20455;-81
2022/06/22 03:19:24;;;;;;;11.13;6.27;;;;;;;;;;4999897;28;20420;-81
2022/06/22 03:21:50;;;;;;;5.60;5.00;;;;;;;;;;5000373;28;20781;-81
2022/06/22 03:24:19;;;;;;;9.83;4.80;;;;;;;;;;4982318;28;20412;-81
2022/06/22 03:26:48;;;;;;;7.07;4.93;;;;;;;;;;4999163;28;20408;-81
2022/06/22 03:29:18;;;;;;;6.93;4.73;;;;;;;;;;4999195;28;20404;-81
2022/06/22 03:31:50;;;;;;;6.13;4.90;;;;;;;;;;4999110;28;20467;-81
2022/06/22 03:34:28;;;;;;;7.80;4.50;;;;;;;;;;4999316;28;20755;-81
2022/06/22 03:36:56;;;;;;;6.90;5.00;;;;;;;;;;4998029;28;20459;-81
2022/06/22 03:39:25;;;;;;;11.50;4.60;;;;;;;;;;4997881;28;20404;-81
2022/06/22 03:41:57;;;;;;;7.70;4.60;;;;;;;;;;4997890;28;20833;-81
2022/06/22 03:44:27;;;;;;;6.60;4.97;;;;;;;;;;4997808;28;20471;-81
2022/06/22 03:46:58;;;;;;;11.83;4.80;;;;;;;;;;4997841;28;20419;-81
2022/06/22 03:49:36;;;;;;;6.93;5.23;;;;;;;;;;4997729;28;20897;-81
2022/06/22 03:52:13;;;;;;;4.97;4.43;;;;;;;;;;4998000;28;20451;-81
2022/06/22 03:54:52;;;;;;;4.97;4.13;;;;;;;;;;4979920;28;20416;-81
2022/06/22 03:57:19;;;;;;;6.17;4.50;;;;;;;;;;4997159;28;20479;-82
2022/06/22 03:59:46;;;;;;;8.93;4.03;;;;;;;;;;4998328;28;20455;-81
2022/06/22 04:02:13;;;;;;;8.03;4.67;;;;;;;;;;5005635;28;20459;-81
2022/06/22 04:04:39;;;;;;;5.93;3.90;;;;;;;;;;5016294;28;20411;-80
2022/06/22 04:07:06;;;;;;;6.23;4.10;;;;;;;;;;5016396;28;20479;-81
2022/06/22 04:09:32;;;;;;;9.27;4.90;;;;;;;;;;5016256;28;20407;-80
2022/06/22 04:12:01;;;;;;;7.00;4.70;;;;;;;;;;5015986;28;20943;-82
2022/06/22 04:14:27;;;;;;;9.37;4.30;;;;;;;;;;5016206;28;20400;-81
2022/06/22 04:16:55;;;;;;;8.53;4.70;;;;;;;;;;5016293;28;20451;-81
2022/06/22 04:19:24;;;;;;;6.70;4.87;;;;;;;;;;5017191;28;20404;-81
2022/06/22 04:21:52;;;;;;;6.70;4.50;;;;;;;;;;5017325;28;20427;-82
2022/06/22 04:24:27;;;;;;;6.33;4.43;;;;;;;;;;5016615;28;20408;-81
2022/06/22 04:26:53;;;;;;;5.90;4.10;;;;;;;;;;5016659;28;20399;-82
2022/06/22 04:29:27;;;;;;;5.87;4.33;;;;;;;;;;5016319;28;20926;-81
2022/06/22 04:31:57;;;;;;;11.07;4.93;;;;;;;;;;5016798;28;20435;-81
2022/06/22 04:34:37;;;;;;;6.60;4.03;;;;;;;;;;5015799;28;20926;-81
2022/06/22 04:37:07;;;;;;;11.57;4.10;;;;;;;;;;5015913;28;20454;-82
2022/06/22 04:39:35;;;;;;;7.10;4.10;;;;;;;;;;5015840;28;20404;-82
2022/06/22 04:42:02;;;;;;;13.53;4.70;;;;;;;;;;5015682;28;20513;-82
2022/06/22 04:44:30;;;;;;;9.90;5.13;;;;;;;;;;5015976;28;20415;-81
2022/06/22 04:46:59;;;;;;;10.97;5.17;;;;;;;;;;5015752;28;20768;-81
2022/06/22 04:49:30;;;;;;;5.13;4.00;;;;;;;;;;5015786;28;20770;-81
2022/06/22 04:52:02;;;;;;;7.37;4.10;;;;;;;;;;4997549;28;20963;-82
2022/06/22 04:54:33;;;;;;;10.60;4.50;;;;;;;;;;5015540;28;20415;-82
2022/06/22 04:57:02;;;;;;;5.17;4.23;;;;;;;;;;5015692;28;20542;-81
2022/06/22 04:59:29;;;;;;;8.50;4.23;;;;;;;;;;5015441;28;20412;-81
2022/06/22 05:02:06;;;;;;;6.67;4.63;;;;;;;;;;5015670;28;20493;-81
2022/06/22 05:04:37;;;;;;;9.47;4.90;;;;;;;;;;5016320;28;20854;-82
2022/06/22 05:07:22;;;;;;;7.60;5.10;;;;;;;;;;5017572;28;20822;-81
2022/06/22 05:09:54;;;;;;;10.80;4.57;;;;;;;;;;5016407;28;20399;-81
2022/06/22 05:12:22;;;;;;;6.93;3.80;;;;;;;;;;5017099;28;20459;-81
2022/06/22 05:14:48;;;;;;;7.57;4.40;;;;;;;;;;5016736;28;20401;-81
2022/06/22 05:17:20;;;;;;;8.37;3.97;;;;;;;;;;5017021;28;20881;-81
2022/06/22 05:19:49;;;;;;;8.20;3.60;;;;;;;;;;5016894;28;20396;-81
2022/06/22 05:22:16;;;;;;;18.23;4.40;;;;;;;;;;4998782;28;20458;-81
2022/06/22 05:24:44;;;;;;;7.70;5.10;;;;;;;;;;4999493;28;20791;-81
2022/06/22 05:27:12;;;;;;;10.27;3.90;;;;;;;;;;5016325;28;20411;-81
2022/06/22 05:29:39;;;;;;;6.27;3.43;;;;;;;;;;5016776;28;20416;-81
2022/06/22 05:32:10;;;;;;;8.87;4.00;;;;;;;;;;5017296;28;20423;-82
2022/06/22 05:34:38;;;;;;;7.63;3.97;;;;;;;;;;5017246;28;20416;-82
2022/06/22 05:37:13;;;;;;;8.33;3.90;;;;;;;;;;5016895;28;20451;-81
2022/06/22 05:39:39;;;;;;;8.97;4.13;;;;;;;;;;5016783;28;20406;-82
2022/06/22 05:42:06;;;;;;;6.70;3.17;;;;;;;;;;5016962;28;20430;-81
2022/06/22 05:44:33;;;;;;;7.70;3.67;;;;;;;;;;5016851;28;20415;-81
2022/06/22 05:47:00;;;;;;;9.77;4.20;;;;;;;;;;4998998;28;20423;-82
2022/06/22 05:49:36;;;;;;;7.80;3.77;;;;;;;;;;5015314;28;20414;-81
2022/06/22 05:52:02;;;;;;;10.90;4.20;;;;;;;;;;5016625;28;20423;-82
2022/06/22 05:54:33;;;;;;;9.50;4.10;;;;;;;;;;5015569;28;20414;-82
2022/06/22 05:57:05;;;;;;;10.80;3.83;;;;;;;;;;5015231;28;20454;-81
2022/06/22 05:59:46;;;;;;;12.23;4.23;;;;;;;;;;5015428;28;20453;-81
2022/06/22 06:02:24;;;;;;;13.50;3.97;;;;;;;;;;5015552;28;20457;-82
2022/06/22 06:04:53;;;;;;;9.87;4.70;;;;;;;;;;5015397;28;20411;-81
2022/06/22 06:07:22;;;;;;;10.50;4.83;;;;;;;;;;5015149;28;20471;-81
2022/06/22 06:09:48;;;;;;;8.93;4.60;;;;;;;;;;5015757;28;20464;-81
2022/06/22 06:12:16;;;;;;;10.07;4.70;;;;;;;;;;5015210;28;20423;-82
2022/06/22 06:14:45;;;;;;;10.83;4.43;;;;;;;;;;5015802;28;20418;-82
2022/06/22 06:17:12;;;;;;;10.87;3.97;;;;;;;;;;5015229;28;20442;-82
2022/06/22 06:19:40;;;;;;;11.97;3.90;;;;;;;;;;5016353;28;20409;-81
2022/06/22 06:22:08;;;;;;;10.30;3.27;;;;;;;;;;5020023;28;20423;-82
2022/06/22 06:24:37;;;;;;;7.47;3.30;;;;;;;;;;5021010;28;20410;-82
2022/06/22 06:30:07;;;;;;;14.80;4.10;;;;;;;;;;5019897;28;20434;-81
2022/06/22 06:32:36;;;;;;;8.40;4.03;;;;;;;;;;5022992;28;20473;-82
2022/06/22 06:35:07;;;;;;;10.10;4.10;;;;;;;;;;5020042;28;20823;-81
2022/06/22 06:37:44;;;;;;;8.30;3.73;;;;;;;;;;5002993;28;20447;-83
2022/06/22 06:40:20;;;;;;;16.70;4.90;;;;;;;;;;5020328;28;20461;-81
2022/06/22 06:42:58;;;;;;;16.30;5.00;;;;;;;;;;5020337;28;20454;-82
2022/06/22 06:45:27;;;;;;;10.43;4.07;;;;;;;;;;5020821;28;20407;-82
2022/06/22 06:47:54;;;;;;;13.50;3.57;;;;;;;;;;5022299;28;20410;-82
2022/06/22 06:50:23;;;;;;;7.63;4.17;;;;;;;;;;5020468;28;20403;-82
2022/06/22 06:52:58;;;;;;;12.27;4.90;;;;;;;;;;5020107;28;20419;-82
2022/06/22 06:55:34;;;;;;;9.10;3.60;;;;;;;;;;5021021;28;20406;-82
2022/06/22 06:58:21;;;;;;;9.00;3.67;;;;;;;;;;5020726;28;20462;-82
2022/06/22 07:00:48;;;;;;;8.70;4.10;;;;;;;;;;5020321;28;20426;-81
2022/06/22 07:03:24;;;;;;;7.17;4.27;;;;;;;;;;5020260;28;20423;-81
2022/06/22 07:05:51;;;;;;;11.53;4.47;;;;;;;;;;5002986;28;20442;-81
2022/06/22 07:08:24;;;;;;;13.03;4.50;;;;;;;;;;5020050;28;20530;-81
2022/06/22 07:10:56;;;;;;;16.13;3.97;;;;;;;;;;5020496;28;20402;-82
2022/06/22 07:13:25;;;;;;;7.33;4.20;;;;;;;;;;5020045;28;20391;-82
2022/06/22 07:15:54;;;;;;;16.27;4.37;;;;;;;;;;5020338;28;20406;-82
2022/06/22 07:18:23;;;;;;;10.37;4.20;;;;;;;;;;5020233;28;20455;-82
2022/06/22 07:20:55;;;;;;;9.37;3.57;;;;;;;;;;5019618;28;20457;-82
2022/06/22 07:23:28;;;;;;;10.70;3.80;;;;;;;;;;5018975;28;20408;-82
2022/06/22 07:26:01;;;;;;;10.70;5.47;;;;;;;;;;5020806;28;20517;-82
2022/06/22 07:28:36;;;;;;;9.37;4.27;;;;;;;;;;5020300;28;20764;-82
2022/06/22 07:31:05;;;;;;;11.83;3.80;;;;;;;;;;5020122;28;20402;-82
2022/06/22 07:33:39;;;;;;;5.53;3.93;;;;;;;;;;5019218;28;20407;-82
2022/06/22 07:36:13;;;;;;;15.23;4.53;;;;;;;;;;5001988;28;20404;-82
2022/06/22 07:38:42;;;;;;;9.77;3.77;;;;;;;;;;5019510;28;20443;-82
2022/06/22 07:41:19;;;;;;;9.37;4.00;;;;;;;;;;5019634;28;20466;-82
2022/06/22 07:43:50;;;;;;;14.43;4.27;;;;;;;;;;5019608;28;20923;-83
2022/06/22 07:46:23;;;;;;;6.70;3.70;;;;;;;;;;5019713;28;20398;-82
2022/06/22 07:48:52;;;;;;;13.37;4.90;;;;;;;;;;5018891;28;20435;-82
2022/06/22 07:51:22;;;;;;;15.53;4.27;;;;;;;;;;5019548;28;21042;-83
2022/06/22 07:54:07;;;;;;;10.40;4.40;;;;;;;;;;5019577;28;20799;-82
2022/06/22 07:57:14;;;;;;;11.07;4.37;;;;;;;;;;5027592;28;20415;-83
2022/06/22 07:59:44;;;;;;;6.90;3.43;;;;;;;;;;4954279;29;20415;-82
2022/06/22 08:02:17;;;;;;;16.10;3.73;;;;;;;;;;4956330;28;20454;-81
2022/06/22 08:04:47;;;;;;;9.73;4.20;;;;;;;;;;4998506;28;20474;-82
2022/06/22 08:07:27;;;;;;;10.47;3.73;;;;;;;;;;5032924;28;20404;-81
2022/06/22 08:09:53;;;;;;;7.87;4.40;;;;;;;;;;5032101;28;20394;-82
2022/06/22 08:12:23;;;;;;;9.03;4.03;;;;;;;;;;5033127;28;20435;-82
2022/06/22 08:14:52;;;;;;;13.80;4.20;;;;;;;;;;5039215;28;20384;-82
2022/06/22 08:17:36;;;;;;;12.03;4.50;;;;;;;;;;5034598;28;20450;-82
2022/06/22 08:20:02;;;;;;;10.90;4.43;;;;;;;;;;5019500;28;20487;-83
2022/06/22 08:22:28;;;;;;;10.80;4.20;;;;;;;;;;5021249;28;20449;-82
2022/06/22 08:24:56;;;;;;;13.43;4.83;;;;;;;;;;5018889;28;20398;-82
2022/06/22 08:27:24;;;;;;;14.73;4.43;;;;;;;;;;5019064;28;20770;-82
2022/06/22 08:29:50;;;;;;;9.87;5.23;;;;;;;;;;5018694;28;20767;-82
2022/06/22 08:32:20;;;;;;;11.93;4.17;;;;;;;;;;5019291;28;20442;-82
2022/06/22 08:34:50;;;;;;;10.53;5.00;;;;;;;;;;5020467;28;20407;-82
2022/06/22 08:37:23;;;;;;;11.00;5.00;;;;;;;;;;5020512;28;20614;-82
2022/06/22 08:39:54;;;;;;;9.23;4.57;;;;;;;;;;5000579;28;20422;-82
2022/06/22 08:42:38;;;;;;;12.10;4.67;;;;;;;;;;5018220;28;20422;-81
2022/06/22 08:45:23;;;;;;;18.83;4.90;;;;;;;;;;5018490;28;21016;-82
2022/06/22 08:47:55;;;;;;;14.73;4.47;;;;;;;;;;5018369;28;20403;-81
2022/06/22 08:50:40;;;;;;;10.80;5.70;;;;;;;;;;5018393;28;20473;-82
2022/06/22 08:53:15;;;;;;;12.43;4.33;;;;;;;;;;5018795;28;20459;-82
2022/06/22 08:55:57;;;;;;;14.57;5.63;;;;;;;;;;5018393;28;20749;-82
2022/06/22 08:58:26;;;;;;;10.47;4.40;;;;;;;;;;5017779;28;20465;-82
2022/06/22 09:00:58;;;;;;;14.47;4.70;;;;;;;;;;5018459;28;20407;-82
2022/06/22 09:03:43;;;;;;;9.33;4.50;;;;;;;;;;5039515;22;20502;-83
2022/06/22 09:06:19;;;;;;;12.27;4.90;;;;;;;;;;5012588;28;20407;-84
2022/06/22 09:08:52;;;;;;;11.80;5.67;;;;;;;;;;5017760;28;20458;-84
2022/06/22 09:11:38;;;;;;;8.37;4.60;;;;;;;;;;5018122;28;20400;-85
2022/06/22 09:14:23;;;;;;;12.17;4.17;;;;;;;;;;4980544;28;20410;-83
2022/06/22 09:16:49;;;;;;;11.43;4.57;;;;;;;;;;4998620;28;20459;-83
2022/06/22 09:19:15;;;;;;;11.97;4.67;;;;;;;;;;4999671;28;20413;-83
2022/06/22 09:21:55;;;;;;;11.27;5.00;;;;;;;;;;4988334;28;20413;-84
2022/06/22 09:24:24;;;;;;;8.00;4.57;;;;;;;;;;5015068;28;20408;-84
2022/06/22 09:26:50;;;;;;;14.23;4.53;;;;;;;;;;5004052;28;20401;-84
2022/06/22 09:29:34;;;;;;;12.70;4.30;;;;;;;;;;5003563;28;20404;-84
2022/06/22 09:32:24;;;;;;;14.23;4.93;;;;;;;;;;5001391;28;20481;-84
2022/06/22 09:35:06;;;;;;;12.47;6.80;;;;;;;;;;4956929;28;20412;-86
2022/06/22 09:37:51;;;;;;;9.33;5.33;;;;;;;;;;4983187;28;20474;-84
2022/06/22 09:40:26;;;;;;;12.83;6.47;;;;;;;;;;4999583;28;20470;-83
2022/06/22 09:42:56;;;;;;;7.70;4.53;;;;;;;;;;5000008;28;20416;-85
2022/06/22 09:45:25;;;;;;;13.60;6.10;;;;;;;;;;5002906;28;20411;-85
2022/06/22 09:48:23;;;;;;;8.40;4.47;;;;;;;;;;5004252;28;20396;-86
2022/06/22 09:51:08;;;;;;;13.87;5.20;;;;;;;;;;4948192;28;20416;-84
2022/06/22 09:53:40;;;;;;;13.90;4.50;;;;;;;;;;5001048;28;20424;-83
2022/06/22 09:56:19;;;;;;;11.53;5.47;;;;;;;;;;4999173;28;20472;-83
2022/06/22 09:59:04;;;;;;;12.10;5.40;;;;;;;;;;4999685;28;20443;-83
2022/06/22 10:01:37;;;;;;;10.27;4.80;;;;;;;;;;4999514;28;20483;-83
2022/06/22 10:04:22;;;;;;;12.40;5.40;;;;;;;;;;4982728;28;20400;-84
2022/06/22 10:06:48;;;;;;;11.87;5.20;;;;;;;;;;5000198;28;20412;-84
2022/06/22 10:09:33;;;;;;;8.63;5.10;;;;;;;;;;4999829;28;20419;-83
2022/06/22 10:12:22;;;;;;;14.53;5.60;;;;;;;;;;4999753;28;20996;-85
2022/06/22 10:15:07;;;;;;;12.40;5.57;;;;;;;;;;4985283;28;20428;-83
2022/06/22 10:17:33;;;;;;;10.57;5.53;;;;;;;;;;4998144;28;20995;-84
2022/06/22 10:20:14;;;;;;;12.00;5.73;;;;;;;;;;4979991;28;20910;-84
2022/06/22 10:23:04;;;;;;;8.80;5.20;;;;;;;;;;4997818;28;20511;-85
2022/06/22 10:25:40;;;;;;;13.93;4.90;;;;;;;;;;4997234;28;20380;-85
2022/06/22 10:28:25;;;;;;;14.43;6.90;;;;;;;;;;4996660;28;20404;-84
2022/06/22 10:30:51;;;;;;;11.57;5.90;;;;;;;;;;5001141;28;20408;-85
2022/06/22 10:33:20;;;;;;;11.77;5.57;;;;;;;;;;4999372;28;20459;-85
2022/06/22 10:35:46;;;;;;;13.60;4.73;;;;;;;;;;4997619;28;20412;-86
2022/06/22 10:38:15;;;;;;;11.00;6.20;;;;;;;;;;4996719;28;20820;-86
2022/06/22 10:46:23;;;;;;;12.77;6.30;;;;;;;;;;4997042;28;20400;-85
2022/06/22 10:48:50;;;;;;;12.73;6.33;;;;;;;;;;5007875;28;20397;-85
2022/06/22 10:51:19;;;;;;;9.53;5.30;;;;;;;;;;4998018;28;20415;-83
2022/06/22 10:54:04;;;;;;;15.60;6.70;;;;;;;;;;4997182;28;20524;-83
2022/06/22 10:56:52;;;;;;;14.20;7.17;;;;;;;;;;4997536;28;20913;-83
2022/06/22 10:59:18;;;;;;;12.53;7.77;;;;;;;;;;4998317;28;20408;-83
2022/06/22 11:01:59;;;;;;;14.00;6.23;;;;;;;;;;4998662;28;20463;-85
2022/06/22 11:04:31;;;;;;;10.27;6.37;;;;;;;;;;4980073;28;20420;-86
2022/06/22 11:06:57;;;;;;;13.30;7.23;;;;;;;;;;5001235;28;20416;-84
2022/06/22 11:09:23;;;;;;;12.20;6.60;;;;;;;;;;4985130;28;20503;-84
2022/06/22 11:11:49;;;;;;;12.60;6.50;;;;;;;;;;5001112;28;20791;-85
2022/06/22 11:14:30;;;;;;;12.07;6.80;;;;;;;;;;5002100;28;20419;-85
2022/06/22 11:17:02;;;;;;;15.83;7.00;;;;;;;;;;5003008;28;20443;-85
2022/06/22 11:19:28;;;;;;;10.10;6.17;;;;;;;;;;5004374;28;20412;-85
2022/06/22 11:22:03;;;;;;;7.77;6.80;;;;;;;;;;5006908;28;20451;-84
2022/06/22 11:24:55;;;;;;;17.50;7.10;;;;;;;;;;5007045;28;20408;-85
2022/06/22 11:33:12;;;;;;;13.30;6.50;;;;;;;;;;5006185;28;20418;-84
2022/06/22 11:35:57;;;;;;;13.93;6.40;;;;;;;;;;5007580;28;20423;-82
2022/06/22 11:38:40;;;;;;;13.00;6.90;;;;;;;;;;5008967;28;20448;-85
2022/06/22 11:41:06;;;;;;;11.60;7.70;;;;;;;;;;5005534;28;20853;-84
2022/06/22 11:43:38;;;;;;;13.57;7.10;;;;;;;;;;5000757;28;20424;-84
2022/06/22 11:46:05;;;;;;;17.43;7.87;;;;;;;;;;4990838;28;20409;-84
2022/06/22 11:48:34;;;;;;;14.17;7.67;;;;;;;;;;5007374;28;20408;-83
2022/06/22 11:51:06;;;;;;;12.30;7.40;;;;;;;;;;5005460;28;20419;-85
2022/06/22 11:53:38;;;;;;;10.80;6.87;;;;;;;;;;5001480;28;20436;-85
2022/06/22 11:56:15;;;;;;;15.63;7.80;;;;;;;;;;4999756;28;20424;-85
2022/06/22 11:58:47;;;;;;;14.80;6.77;;;;;;;;;;5001007;28;20801;-87
2022/06/22 12:01:22;;;;;;;12.10;6.60;;;;;;;;;;4999505;28;20432;-83
2022/06/22 12:03:51;;;;;;;11.90;6.37;;;;;;;;;;4998626;28;20900;-85
2022/06/22 12:06:36;;;;;;;14.80;7.13;;;;;;;;;;4982102;28;20812;-85
2022/06/22 12:09:14;;;;;;;13.57;6.30;;;;;;;;;;4998097;28;20419;-84
2022/06/22 12:11:46;;;;;;;8.57;5.57;;;;;;;;;;4997888;28;20901;-86
2022/06/22 12:17:39;;;;;;;12.47;5.53;;;;;;;;;;4998182;28;20471;-86
2022/06/22 12:20:08;;;;;;;8.47;5.03;;;;;;;;;;4998618;28;20491;-84
2022/06/22 12:22:40;;;;;;;13.90;7.03;;;;;;;;;;4999356;28;20424;-86
2022/06/22 12:25:06;;;;;;;12.10;7.70;;;;;;;;;;4999745;28;20385;-86
2022/06/22 12:27:35;;;;;;;8.20;5.03;;;;;;;;;;4999877;28;20401;-84
2022/06/22 12:30:09;;;;;;;10.43;5.13;;;;;;;;;;5000209;28;20972;-86
2022/06/22 12:32:39;;;;;;;11.53;5.60;;;;;;;;;;4999794;28;20907;-85
2022/06/22 12:35:32;;;;;;;10.93;4.97;;;;;;;;;;5000985;28;20400;-86
2022/06/22 12:38:01;;;;;;;8.83;4.47;;;;;;;;;;4966580;28;20513;-85
2022/06/22 12:40:33;;;;;;;12.33;5.87;;;;;;;;;;5004534;28;20408;-86
2022/06/22 12:43:11;;;;;;;12.50;5.37;;;;;;;;;;5003009;28;20429;-83
2022/06/22 12:46:10;;;;;;;11.13;5.10;;;;;;;;;;5009371;28;20459;-84
2022/06/22 12:48:47;;;;;;;13.90;5.43;;;;;;;;;;4947585;28;20455;-85
2022/06/22 12:51:26;;;;;;;10.07;4.60;;;;;;;;;;5007218;28;20392;-83
2022/06/22 12:53:58;;;;;;;9.73;5.07;;;;;;;;;;5007749;28;20499;-86
2022/06/22 12:56:29;;;;;;;14.87;4.60;;;;;;;;;;5008098;28;20412;-86
2022/06/22 12:58:57;;;;;;;9.97;4.60;;;;;;;;;;5007541;28;20455;-85
2022/06/22 13:01:24;;;;;;;9.30;4.70;;;;;;;;;;5001108;28;20472;-86
2022/06/22 13:03:57;;;;;;;16.60;4.70;;;;;;;;;;5001097;28;20921;-86
2022/06/22 13:06:24;;;;;;;15.17;4.07;;;;;;;;;;4999252;28;20412;-86
2022/06/22 13:08:51;;;;;;;18.90;4.90;;;;;;;;;;4999507;28;20408;-86
2022/06/22 13:11:19;;;;;;;11.43;3.80;;;;;;;;;;4999121;28;20419;-86
2022/06/22 13:13:45;;;;;;;13.73;4.63;;;;;;;;;;4998642;28;20797;-84
2022/06/22 13:16:13;;;;;;;12.90;4.40;;;;;;;;;;4999832;28;20412;-85
2022/06/22 13:18:58;;;;;;;24.03;4.70;;;;;;;;;;4983043;28;20451;-85
2022/06/22 13:21:24;;;;;;;15.03;4.47;;;;;;;;;;4996694;28;20416;-86
2022/06/22 13:23:50;;;;;;;12.07;3.70;;;;;;;;;;4999893;28;20474;-87
2022/06/22 13:26:29;;;;;;;11.80;4.30;;;;;;;;;;5000571;28;20408;-86
2022/06/22 13:28:55;;;;;;;12.83;4.97;;;;;;;;;;5001542;28;20399;-86
2022/06/22 13:31:24;;;;;;;17.03;4.30;;;;;;;;;;5001344;28;20434;-87
2022/06/22 13:33:53;;;;;;;10.33;3.40;;;;;;;;;;4999427;28;20416;-87
2022/06/22 13:36:19;;;;;;;14.57;4.13;;;;;;;;;;4999826;28;20412;-87
2022/06/22 13:39:00;;;;;;;10.33;3.20;;;;;;;;;;4998580;28;21005;-86
2022/06/22 13:41:59;;;;;;;13.70;3.60;;;;;;;;;;4982556;28;20416;-85
2022/06/22 13:44:45;;;;;;;11.20;3.97;;;;;;;;;;4948220;28;20447;-85
2022/06/22 13:47:26;;;;;;;9.20;3.43;;;;;;;;;;4999933;28;20476;-86
2022/06/22 13:52:58;;;;;;;15.03;4.63;;;;;;;;;;4990311;28;20432;-87
2022/06/22 13:55:30;;;;;;;11.67;4.37;;;;;;;;;;4982461;28;20416;-85
2022/06/22 13:58:00;;;;;;;19.73;3.50;;;;;;;;;;5012396;28;20452;-83
2022/06/22 14:00:34;;;;;;;11.33;4.30;;;;;;;;;;5001253;28;20401;-86
2022/06/22 14:03:13;;;;;;;10.23;3.60;;;;;;;;;;4999110;28;20498;-87
2022/06/22 14:05:47;;;;;;;8.80;2.80;;;;;;;;;;4999820;28;20399;-87
2022/06/22 14:08:13;;;;;;;11.47;3.47;;;;;;;;;;4999156;28;20423;-87
2022/06/22 14:10:39;;;;;;;14.93;3.63;;;;;;;;;;5000008;28;20431;-86
2022/06/22 14:13:13;;;;;;;16.90;4.00;;;;;;;;;;4982748;28;20440;-85
2022/06/22 14:15:44;;;;;;;10.20;4.00;;;;;;;;;;5001579;28;20393;-86
2022/06/22 14:18:14;;;;;;;13.57;4.43;;;;;;;;;;4999328;28;20462;-86
2022/06/22 14:20:44;;;;;;;10.07;3.60;;;;;;;;;;4999568;28;20793;-85
2022/06/22 14:23:16;;;;;;;10.30;3.87;;;;;;;;;;4999466;28;20436;-86
2022/06/22 14:26:01;;;;;;;11.83;3.50;;;;;;;;;;4999293;28;20385;-85
2022/06/22 14:28:30;;;;;;;13.43;5.67;;;;;;;;;;4998476;28;20404;-88
2022/06/22 14:31:08;;;;;;;6.90;3.27;;;;;;;;;;4998802;28;20400;-85
2022/06/22 14:33:43;;;;;;;13.00;4.60;;;;;;;;;;4997746;28;20439;-85
2022/06/22 14:36:16;;;;;;;11.40;4.00;;;;;;;;;;4999011;28;20411;-86
2022/06/22 14:38:51;;;;;;;13.17;3.67;;;;;;;;;;4997658;28;20455;-85
2022/06/22 14:41:20;;;;;;;9.73;3.80;;;;;;;;;;4981388;28;20932;-85
2022/06/22 14:43:55;;;;;;;9.20;4.20;;;;;;;;;;5002769;28;20463;-86
2022/06/22 14:46:39;;;;;;;11.93;4.40;;;;;;;;;;5003656;28;20408;-87
2022/06/22 14:49:11;;;;;;;9.43;4.13;;;;;;;;;;5003288;28;20404;-85
2022/06/22 14:51:56;;;;;;;10.87;3.83;;;;;;;;;;5002114;28;20400;-87
2022/06/22 14:54:41;;;;;;;11.13;4.53;;;;;;;;;;5005587;28;20467;-85
2022/06/22 14:57:10;;;;;;;16.60;4.30;;;;;;;;;;5003145;28;20449;-87
2022/06/22 14:59:41;;;;;;;9.67;4.40;;;;;;;;;;5001506;28;20403;-86
2022/06/22 15:02:07;;;;;;;16.10;5.40;;;;;;;;;;5019598;22;20447;-82
2022/06/22 15:04:43;;;;;;;13.10;4.53;;;;;;;;;;5017864;28;21022;-82
2022/06/22 15:07:34;;;;;;;8.47;4.30;;;;;;;;;;5001525;28;20407;-81
2022/06/22 15:10:26;;;;;;;9.17;4.70;;;;;;;;;;5001094;28;20456;-82
2022/06/22 15:13:04;;;;;;;6.60;4.77;;;;;;;;;;4998744;28;20443;-82
2022/06/22 15:16:03;;;;;;;11.27;5.27;;;;;;;;;;5001616;28;20426;-82
2022/06/22 15:18:47;;;;;;;14.70;6.27;;;;;;;;;;4958235;28;20502;-82
2022/06/22 15:21:31;;;;;;;10.50;6.20;;;;;;;;;;5002829;28;20420;-82
2022/06/22 15:24:20;;;;;;;10.23;5.70;;;;;;;;;;5001664;28;20428;-83
2022/06/22 15:26:53;;;;;;;10.77;6.20;;;;;;;;;;4961545;28;20411;-83
2022/06/22 15:29:23;;;;;;;11.07;5.63;;;;;;;;;;5001492;28;20474;-82
2022/06/22 15:32:02;;;;;;;13.80;5.63;;;;;;;;;;5001635;28;20492;-83
2022/06/22 15:34:31;;;;;;;12.10;6.20;;;;;;;;;;4984442;28;20401;-82